Time;durP1;ratioP1;P1;durP2;ratioP2;P2;SDS_P1;SDS_P2;PMS_P1;PMS_P2;Temp;Humidity;BMP_temperature;BMP_pressure;BME280_temperature;BME280_humidity;BME280_pressure;Samples;Min_cycle;Max_cycle;Signal;HPM_P1;HPM_P2
2024/04/03 00:00:46;;;;;;;0.43;0.40;;;;;;;12.13;38.04;96158.34;7399709;19;20002;-58
2024/04/03 00:03:11;;;;;;;0.60;0.40;;;;;;;12.17;37.79;96159.06;7398639;19;20111;-56
2024/04/03 00:05:37;;;;;;;0.50;0.50;;;;;;;12.19;37.41;96170.28;7397789;19;20007;-56
2024/04/03 00:08:06;;;;;;;0.93;0.32;;;;;;;12.12;37.89;96168.91;7399437;19;20070;-55
2024/04/03 00:10:31;;;;;;;0.50;0.50;;;;;;;12.21;37.37;96157.97;7399732;19;20343;-56
2024/04/03 00:12:58;;;;;;;0.50;0.50;;;;;;;11.83;38.58;96164.16;7399256;19;20005;-57
2024/04/03 00:15:24;;;;;;;6.32;0.60;;;;;;;11.85;38.65;96167.56;7399197;19;19999;-57
2024/04/03 00:17:53;;;;;;;0.73;0.50;;;;;;;11.95;38.18;96170.56;7399166;19;19995;-55
2024/04/03 00:20:23;;;;;;;2.25;0.52;;;;;;;12.01;37.68;96172.03;7399571;19;19999;-58
2024/04/03 00:22:49;;;;;;;0.45;0.45;;;;;;;12.00;38.01;96176.44;7399485;19;20062;-55
2024/04/03 00:25:14;;;;;;;0.88;0.40;;;;;;;11.93;37.41;96167.19;7398082;19;20376;-55
2024/04/03 00:27:40;;;;;;;0.50;0.50;;;;;;;11.88;37.74;96169.19;7398946;19;20464;-58
2024/04/03 00:30:07;;;;;;;0.75;0.52;;;;;;;11.77;37.85;96168.88;7397551;19;19991;-53
2024/04/03 00:32:34;;;;;;;1.45;0.52;;;;;;;11.69;37.97;96169.22;7398734;19;20015;-54
2024/04/03 00:35:00;;;;;;;0.60;0.52;;;;;;;11.38;39.45;96175.00;7398499;19;20005;-56
2024/04/03 00:37:26;;;;;;;0.82;0.50;;;;;;;11.62;38.07;96180.00;7398407;19;19995;-53
2024/04/03 00:39:55;;;;;;;2.28;0.50;;;;;;;11.49;38.34;96174.50;7398369;19;20040;-55
2024/04/03 00:42:21;;;;;;;0.68;0.50;;;;;;;11.61;38.01;96177.44;7398391;19;20380;-55
2024/04/03 00:44:48;;;;;;;0.57;0.40;;;;;;;11.43;38.37;96182.66;7397589;19;20002;-58
2024/04/03 00:47:17;;;;;;;0.50;0.40;;;;;;;11.37;38.13;96181.19;7398181;19;20016;-53
2024/04/03 00:49:44;;;;;;;0.57;0.57;;;;;;;11.56;37.45;96180.28;7398094;19;19994;-59
2024/04/03 00:52:14;;;;;;;0.30;0.30;;;;;;;11.33;39.00;96184.88;7398106;19;19998;-57
2024/04/03 00:54:45;;;;;;;0.35;0.35;;;;;;;11.36;38.03;96189.97;7397847;19;19999;-53
2024/04/03 00:57:13;;;;;;;0.50;0.50;;;;;;;11.50;38.26;96198.94;7397991;19;20456;-56
2024/04/03 00:59:39;;;;;;;0.30;0.30;;;;;;;11.68;36.99;96206.84;7397743;19;20005;-57
2024/04/03 01:02:05;;;;;;;0.55;0.40;;;;;;;11.64;36.52;96203.50;7398132;19;20022;-53
2024/04/03 01:04:31;;;;;;;0.32;0.32;;;;;;;11.66;36.77;96195.56;7395516;19;20567;-55
2024/04/03 01:06:56;;;;;;;1.52;0.50;;;;;;;11.62;37.27;96211.44;7397582;19;20024;-53
2024/04/03 01:09:22;;;;;;;0.43;0.40;;;;;;;11.74;36.87;96201.31;7397451;19;20002;-55
2024/04/03 01:11:49;;;;;;;0.75;0.47;;;;;;;11.55;37.68;96211.78;7397451;19;20006;-56
2024/04/03 01:14:15;;;;;;;0.60;0.40;;;;;;;11.62;37.60;96208.81;7397723;19;20007;-56
2024/04/03 01:16:42;;;;;;;0.70;0.50;;;;;;;11.53;37.94;96211.03;7397284;19;20517;-54
2024/04/03 01:19:08;;;;;;;4.00;0.60;;;;;;;11.75;37.47;96206.44;7397110;19;20511;-55
2024/04/03 01:21:33;;;;;;;0.65;0.65;;;;;;;11.48;38.14;96198.16;7397163;19;20003;-51
2024/04/03 01:23:59;;;;;;;0.73;0.50;;;;;;;11.33;38.76;96208.44;7397143;19;19999;-55
2024/04/03 01:26:26;;;;;;;1.88;0.60;;;;;;;11.32;38.88;96211.94;7395330;19;19998;-55
2024/04/03 01:28:51;;;;;;;0.43;0.30;;;;;;;11.29;39.12;96206.84;7397290;19;20030;-56
2024/04/03 01:31:17;;;;;;;0.35;0.35;;;;;;;11.19;38.94;96216.06;7396873;19;19990;-59
2024/04/03 01:33:42;;;;;;;1.00;0.73;;;;;;;11.38;39.04;96213.47;7396607;19;20002;-56
2024/04/03 01:36:08;;;;;;;0.35;0.35;;;;;;;11.18;39.39;96225.69;7396699;19;20025;-54
2024/04/03 01:38:34;;;;;;;0.40;0.40;;;;;;;11.15;39.42;96228.44;7396441;19;20006;-56
2024/04/03 01:40:59;;;;;;;0.70;0.50;;;;;;;11.06;40.38;96221.00;7396811;19;20010;-52
2024/04/03 01:43:25;;;;;;;0.40;0.40;;;;;;;10.73;41.98;96219.81;7394242;19;20070;-56
2024/04/03 01:45:57;;;;;;;1.08;0.40;;;;;;;10.74;41.32;96216.28;7395027;19;20026;-55
2024/04/03 01:48:23;;;;;;;0.82;0.50;;;;;;;11.12;39.77;96216.34;7396139;19;20453;-60
2024/04/03 01:50:49;;;;;;;0.40;0.40;;;;;;;11.04;39.76;96221.06;7395991;19;20028;-52
2024/04/03 01:53:14;;;;;;;0.68;0.50;;;;;;;11.00;40.39;96222.13;7396102;19;20002;-56
2024/04/03 01:55:40;;;;;;;0.43;0.32;;;;;;;10.93;40.11;96212.88;7396443;19;20473;-56
2024/04/03 01:58:05;;;;;;;2.67;0.60;;;;;;;11.05;39.89;96225.38;7395811;19;20013;-54
2024/04/03 02:00:31;;;;;;;0.85;0.52;;;;;;;10.90;40.38;96229.56;7395733;19;20002;-56
2024/04/03 02:02:57;;;;;;;2.70;0.30;;;;;;;10.97;40.12;96230.97;7394987;19;20007;-60
2024/04/03 02:05:22;;;;;;;2.22;0.50;;;;;;;10.70;40.87;96226.03;7394640;19;19995;-54
2024/04/03 02:07:49;;;;;;;0.50;0.40;;;;;;;10.79;40.69;96232.63;7395885;19;20071;-56
2024/04/03 02:10:15;;;;;;;0.55;0.50;;;;;;;10.77;40.48;96233.63;7395489;19;20002;-55
2024/04/03 02:12:41;;;;;;;0.40;0.40;;;;;;;10.75;40.70;96231.09;7395767;19;19995;-57
2024/04/03 02:15:06;;;;;;;0.47;0.40;;;;;;;10.99;39.78;96228.28;7395354;19;20362;-54
2024/04/03 02:17:32;;;;;;;1.08;0.40;;;;;;;10.51;41.66;96225.13;7393732;19;20005;-58
2024/04/03 02:19:57;;;;;;;0.50;0.50;;;;;;;10.40;42.22;96230.78;7395718;19;20106;-56
2024/04/03 02:22:23;;;;;;;1.75;0.70;;;;;;;10.56;41.21;96234.47;7395421;19;20457;-58
2024/04/03 02:24:48;;;;;;;0.50;0.50;;;;;;;10.33;41.87;96232.81;7394443;19;20364;-57
2024/04/03 02:27:14;;;;;;;0.40;0.40;;;;;;;10.41;42.11;96232.50;7395362;19;20018;-55
2024/04/03 02:29:39;;;;;;;0.40;0.40;;;;;;;10.57;41.36;96233.56;7395176;19;19995;-54
2024/04/03 02:32:05;;;;;;;0.73;0.60;;;;;;;10.92;40.62;96237.31;7394893;19;20353;-59
2024/04/03 02:34:31;;;;;;;4.18;0.50;;;;;;;10.64;41.26;96239.38;7394946;19;19994;-57
2024/04/03 02:36:56;;;;;;;2.83;0.55;;;;;;;10.78;41.03;96240.56;7395205;19;19998;-55
2024/04/03 02:39:22;;;;;;;0.45;0.40;;;;;;;10.67;41.28;96244.47;7395055;19;20350;-57
2024/04/03 02:41:47;;;;;;;0.57;0.57;;;;;;;10.79;40.79;96243.09;7394763;19;20848;-61
2024/04/03 02:44:13;;;;;;;0.38;0.32;;;;;;;10.82;41.25;96248.22;7394390;19;20075;-61
2024/04/03 02:46:38;;;;;;;0.40;0.40;;;;;;;10.41;41.74;96241.16;7394513;19;20002;-58
2024/04/03 02:49:04;;;;;;;1.33;0.28;;;;;;;10.82;40.89;96263.03;7394564;19;20002;-54
2024/04/03 02:51:30;;;;;;;0.90;0.52;;;;;;;10.33;42.10;96248.50;7394515;19;20010;-55
2024/04/03 02:53:55;;;;;;;0.43;0.43;;;;;;;10.51;41.84;96261.75;7397359;19;20013;-55
2024/04/03 02:56:21;;;;;;;0.65;0.60;;;;;;;10.31;43.02;96263.38;7401797;19;19999;-59
2024/04/03 02:58:46;;;;;;;0.75;0.52;;;;;;;9.89;43.73;96279.00;7401795;19;20006;-56
2024/04/03 03:01:12;;;;;;;1.20;0.50;;;;;;;10.40;42.34;96281.31;7401698;19;19995;-58
2024/04/03 03:03:37;;;;;;;1.83;0.50;;;;;;;10.28;42.53;96277.44;7399925;19;20002;-56
2024/04/03 03:06:06;;;;;;;0.52;0.50;;;;;;;10.51;41.65;96280.91;7399296;19;20006;-59
2024/04/03 03:08:33;;;;;;;2.47;0.50;;;;;;;9.94;43.13;96284.88;7401570;19;20010;-59
2024/04/03 03:11:00;;;;;;;0.50;0.50;;;;;;;9.59;44.65;96287.09;7401442;19;20015;-60
2024/04/03 03:13:28;;;;;;;0.52;0.50;;;;;;;9.08;45.94;96292.44;7401345;19;19998;-59
2024/04/03 03:16:01;;;;;;;1.33;0.65;;;;;;;8.90;47.23;96300.00;7401682;19;20002;-59
2024/04/03 03:18:28;;;;;;;1.48;0.60;;;;;;;8.34;49.02;96304.47;7401547;19;20006;-57
2024/04/03 03:20:55;;;;;;;0.73;0.47;;;;;;;8.54;48.91;96305.59;7401023;19;20457;-59
2024/04/03 03:23:20;;;;;;;0.52;0.52;;;;;;;8.70;47.30;96306.75;7401011;19;19999;-55
2024/04/03 03:25:48;;;;;;;0.45;0.45;;;;;;;8.61;47.87;96314.91;7398959;19;20005;-58
2024/04/03 03:28:14;;;;;;;0.47;0.47;;;;;;;8.14;49.85;96312.94;7400890;19;20361;-57
2024/04/03 03:30:40;;;;;;;1.40;0.55;;;;;;;8.05;50.28;96312.31;7400790;19;20491;-58
2024/04/03 03:33:06;;;;;;;1.00;0.50;;;;;;;8.04;50.09;96317.59;7400797;19;19998;-58
2024/04/03 03:35:32;;;;;;;0.63;0.63;;;;;;;7.64;51.68;96314.44;7400964;19;20457;-56
2024/04/03 03:37:58;;;;;;;0.40;0.40;;;;;;;7.20;52.08;96318.31;7400955;19;19999;-58
2024/04/03 03:40:24;;;;;;;0.50;0.50;;;;;;;7.06;54.17;96316.06;7400358;19;20487;-57
2024/04/03 03:42:50;;;;;;;0.63;0.40;;;;;;;6.63;55.14;96316.34;7400405;19;20019;-60
2024/04/03 03:45:20;;;;;;;0.40;0.40;;;;;;;6.35;56.59;96318.78;7398988;19;20063;-57
2024/04/03 03:47:47;;;;;;;0.50;0.50;;;;;;;6.16;56.75;96324.41;7400644;19;20032;-56
2024/04/03 03:52:58;;;;;;;2.40;0.60;;;;;;;5.93;58.40;96330.97;7400163;19;20006;-58
2024/04/03 03:55:30;;;;;;;0.40;0.40;;;;;;;6.03;57.49;96334.19;7400012;19;19999;-58
2024/04/03 03:57:57;;;;;;;0.30;0.30;;;;;;;5.70;58.54;96332.34;7399874;19;20571;-56
2024/04/03 04:00:23;;;;;;;0.60;0.60;;;;;;;5.45;59.48;96340.66;7399883;19;20011;-57
2024/04/03 04:02:50;;;;;;;1.52;0.60;;;;;;;5.56;59.43;96332.63;7398748;19;19999;-57
2024/04/03 04:05:17;;;;;;;1.67;0.50;;;;;;;5.67;59.43;96337.59;7396383;19;20014;-62
2024/04/03 04:07:44;;;;;;;2.15;0.65;;;;;;;5.89;59.04;96347.50;7399609;19;20007;-55
2024/04/03 04:10:09;;;;;;;3.53;0.60;;;;;;;5.78;58.96;96353.78;7399584;19;20354;-55
2024/04/03 04:12:35;;;;;;;0.57;0.50;;;;;;;6.20;58.77;96359.78;7399692;19;20015;-58
2024/04/03 04:15:00;;;;;;;1.65;0.60;;;;;;;6.81;56.09;96358.34;7399295;19;20453;-61
2024/04/03 04:17:26;;;;;;;0.43;0.43;;;;;;;6.61;56.63;96371.84;7399151;19;20006;-52
2024/04/03 04:19:51;;;;;;;2.35;0.60;;;;;;;6.50;57.16;96366.91;7399085;19;20006;-59
2024/04/03 04:22:17;;;;;;;0.40;0.40;;;;;;;6.77;57.11;96361.94;7399439;19;20048;-58
2024/04/03 04:24:45;;;;;;;0.40;0.40;;;;;;;6.50;58.02;96369.53;7398443;19;19998;-58
2024/04/03 04:27:12;;;;;;;0.40;0.40;;;;;;;6.63;57.56;96373.53;7398953;19;20009;-55
2024/04/03 04:29:42;;;;;;;0.63;0.60;;;;;;;6.79;56.94;96376.59;7399168;19;19998;-57
2024/04/03 04:32:11;;;;;;;0.57;0.50;;;;;;;7.56;54.80;96380.59;7397578;19;20006;-59
2024/04/03 04:34:40;;;;;;;0.50;0.50;;;;;;;7.87;53.85;96385.81;7399001;19;20007;-60
2024/04/03 04:37:06;;;;;;;2.70;0.60;;;;;;;7.92;54.78;96391.75;7398598;19;20007;-55
2024/04/03 04:39:32;;;;;;;0.50;0.50;;;;;;;8.63;52.64;96391.31;7398420;19;20495;-59
2024/04/03 04:41:58;;;;;;;0.70;0.60;;;;;;;10.94;46.82;96406.44;7397203;19;20058;-56
2024/04/03 04:44:24;;;;;;;0.40;0.40;;;;;;;13.02;41.28;96411.09;7398080;19;20010;-57
2024/04/03 04:46:52;;;;;;;3.47;0.50;;;;;;;13.71;39.41;96426.06;7398371;19;20114;-59
2024/04/03 04:49:19;;;;;;;2.40;0.32;;;;;;;17.14;33.45;96426.28;7398082;19;20054;-57
2024/04/03 04:51:44;;;;;;;2.30;0.70;;;;;;;17.86;32.33;96421.50;7398182;19;20513;-56
2024/04/03 04:54:11;;;;;;;0.55;0.40;;;;;;;18.63;30.63;96432.88;7397990;19;19998;-59
2024/04/03 04:56:39;;;;;;;2.03;0.40;;;;;;;18.93;30.72;96438.69;7398297;19;20055;-56
2024/04/03 04:59:05;;;;;;;1.25;0.40;;;;;;;19.00;29.88;96441.75;7397841;19;20023;-61
2024/04/03 05:01:33;;;;;;;0.32;0.32;;;;;;;18.69;30.02;96440.41;7397765;19;19994;-56
2024/04/03 05:03:59;;;;;;;2.03;0.30;;;;;;;20.55;27.63;96446.88;7395962;19;20426;-59
2024/04/03 05:06:25;;;;;;;0.47;0.38;;;;;;;21.12;24.98;96448.53;7395672;19;20038;-59
2024/04/03 05:08:51;;;;;;;0.30;0.30;;;;;;;21.23;26.34;96447.66;7397463;19;20456;-53
2024/04/03 05:11:16;;;;;;;0.38;0.30;;;;;;;22.07;27.10;96446.81;7397905;19;20005;-53
2024/04/03 05:13:42;;;;;;;0.30;0.30;;;;;;;20.30;29.03;96447.03;7397365;19;20485;-58
2024/04/03 05:16:12;;;;;;;0.70;0.40;;;;;;;21.49;28.12;96453.47;7397361;19;20052;-54
2024/04/03 05:18:38;;;;;;;1.87;0.30;;;;;;;20.33;27.90;96456.56;7397239;19;19998;-58
2024/04/03 05:21:07;;;;;;;0.60;0.60;;;;;;;22.26;25.99;96458.56;7397085;19;20266;-57
2024/04/03 05:23:34;;;;;;;0.43;0.30;;;;;;;23.69;23.45;96471.72;7397103;19;19999;-57
2024/04/03 05:26:01;;;;;;;0.47;0.30;;;;;;;23.80;23.70;96468.03;7394041;19;20003;-58
2024/04/03 05:28:30;;;;;;;0.68;0.30;;;;;;;25.23;22.15;96463.50;7396848;19;20066;-57
2024/04/03 05:31:06;;;;;;;0.13;0.13;;;;;;;26.93;19.47;96481.16;7396806;19;20003;-52
2024/04/03 05:33:32;;;;;;;0.22;0.20;;;;;;;24.00;21.09;96481.38;7396782;19;20019;-58
2024/04/03 05:35:59;;;;;;;0.38;0.28;;;;;;;24.78;21.82;96483.88;7396658;19;20003;-52
2024/04/03 05:38:25;;;;;;;0.43;0.32;;;;;;;25.58;21.39;96485.88;7396457;19;20010;-56
2024/04/03 05:40:54;;;;;;;0.32;0.20;;;;;;;24.81;21.07;96480.91;7395123;19;20345;-58
2024/04/03 05:43:21;;;;;;;0.70;0.28;;;;;;;25.87;20.42;96481.28;7396474;19;19998;-58
2024/04/03 05:45:47;;;;;;;0.30;0.30;;;;;;;27.84;18.78;96499.25;7394995;19;20001;-57
2024/04/03 05:48:14;;;;;;;1.00;0.30;;;;;;;25.93;20.82;96495.88;7396269;19;19994;-55
2024/04/03 05:50:40;;;;;;;0.35;0.35;;;;;;;25.60;20.18;96489.28;7396545;19;20342;-52
2024/04/03 05:53:05;;;;;;;2.00;0.30;;;;;;;25.79;21.54;96490.09;7396183;19;20002;-56
2024/04/03 05:55:31;;;;;;;0.32;0.30;;;;;;;24.84;20.62;96491.31;7396162;19;20003;-55
2024/04/03 05:57:57;;;;;;;0.22;0.22;;;;;;;23.49;23.60;96489.59;7395929;19;20461;-58
2024/04/03 06:00:23;;;;;;;0.40;0.28;;;;;;;23.14;22.95;96499.78;7396253;19;20078;-57
2024/04/03 06:02:49;;;;;;;0.32;0.30;;;;;;;25.68;20.71;96493.88;7394986;19;20406;-60
2024/04/03 06:05:14;;;;;;;0.30;0.30;;;;;;;24.44;21.22;96486.16;7394938;19;19999;-52
2024/04/03 06:07:42;;;;;;;0.40;0.40;;;;;;;24.45;21.19;96493.19;7395581;19;20027;-51
2024/04/03 06:10:09;;;;;;;1.50;0.40;;;;;;;24.64;20.58;96498.59;7395534;19;20022;-57
2024/04/03 06:12:35;;;;;;;0.40;0.40;;;;;;;25.33;22.47;96506.22;7395920;19;20007;-57
2024/04/03 06:15:01;;;;;;;0.40;0.30;;;;;;;24.30;23.22;96500.00;7395442;19;20370;-53
2024/04/03 06:17:26;;;;;;;1.33;0.40;;;;;;;25.08;21.82;96506.81;7395426;19;20002;-52
2024/04/03 06:19:52;;;;;;;0.47;0.25;;;;;;;26.23;21.10;96507.97;7395770;19;20007;-52
2024/04/03 06:22:17;;;;;;;0.30;0.30;;;;;;;25.68;19.80;96509.09;7395197;19;20468;-55
2024/04/03 06:24:43;;;;;;;2.08;0.38;;;;;;;27.12;19.41;96516.78;7395167;19;20010;-58
2024/04/03 06:27:09;;;;;;;1.20;0.30;;;;;;;26.30;20.24;96510.88;7395042;19;20364;-58
2024/04/03 06:29:35;;;;;;;0.98;0.63;;;;;;;25.01;21.42;96507.59;7393651;19;20019;-57
2024/04/03 06:32:01;;;;;;;1.25;0.50;;;;;;;23.34;23.01;96515.81;7395263;19;20007;-57
2024/04/03 06:34:27;;;;;;;0.75;0.40;;;;;;;21.87;26.65;96495.63;7395434;19;20003;-55
2024/04/03 06:36:53;;;;;;;2.15;0.40;;;;;;;20.93;24.01;96504.09;7395225;19;20368;-53
2024/04/03 06:39:19;;;;;;;0.88;0.43;;;;;;;19.04;27.25;96502.38;7395163;19;20006;-55
2024/04/03 06:41:45;;;;;;;2.08;0.50;;;;;;;20.44;26.09;96506.19;7394709;19;20005;-58
2024/04/03 06:44:11;;;;;;;0.95;0.50;;;;;;;19.02;27.63;96506.13;7394646;19;20006;-53
2024/04/03 06:46:36;;;;;;;2.35;0.60;;;;;;;20.76;26.30;96505.41;7392650;19;19999;-59
2024/04/03 06:49:02;;;;;;;0.70;0.47;;;;;;;20.14;26.83;96502.31;7394914;19;20025;-56
2024/04/03 06:51:28;;;;;;;1.02;0.55;;;;;;;20.93;26.86;96509.41;7394588;19;20007;-56
2024/04/03 06:53:54;;;;;;;3.03;0.50;;;;;;;20.44;26.26;96516.81;7394786;19;20002;-54
2024/04/03 06:56:19;;;;;;;1.20;0.40;;;;;;;20.73;25.59;96523.41;7394274;19;20464;-56
2024/04/03 06:58:45;;;;;;;0.47;0.40;;;;;;;19.81;26.86;96533.94;7394308;19;20006;-55
2024/04/03 07:01:12;;;;;;;2.33;0.60;;;;;;;19.92;27.22;96533.97;7394180;19;19994;-59
2024/04/03 07:03:38;;;;;;;5.50;0.70;;;;;;;20.14;27.67;96527.03;7392939;19;20346;-53
2024/04/03 07:06:05;;;;;;;0.63;0.40;;;;;;;20.34;26.00;96524.63;7392846;19;20103;-50
2024/04/03 07:08:32;;;;;;;1.02;0.57;;;;;;;21.16;25.70;96530.59;7394133;19;19994;-57
2024/04/03 07:10:57;;;;;;;2.28;0.50;;;;;;;20.45;27.91;96527.31;7394056;19;20003;-56
2024/04/03 07:13:23;;;;;;;3.08;0.40;;;;;;;20.00;26.69;96529.88;7393889;19;20075;-55
2024/04/03 07:15:49;;;;;;;0.73;0.40;;;;;;;21.41;26.80;96544.56;7394124;19;20006;-54
2024/04/03 07:18:17;;;;;;;0.93;0.40;;;;;;;20.55;26.79;96539.84;7393670;19;20010;-54
2024/04/03 07:20:51;;;;;;;0.85;0.60;;;;;;;19.93;25.87;96540.13;7394000;19;20007;-50
2024/04/03 07:23:17;;;;;;;2.20;0.90;;;;;;;20.43;28.16;96533.69;7393714;19;20009;-50
2024/04/03 07:25:42;;;;;;;1.17;0.60;;;;;;;20.98;25.79;96537.44;7392242;19;20062;-57
2024/04/03 07:28:13;;;;;;;1.25;0.70;;;;;;;21.59;26.01;96541.34;7393802;19;20031;-52
2024/04/03 07:30:42;;;;;;;3.10;1.00;;;;;;;20.91;27.16;96526.44;7393885;19;20016;-57
2024/04/03 07:33:09;;;;;;;3.30;1.33;;;;;;;19.15;28.57;96535.25;7393339;19;20062;-52
2024/04/03 07:35:35;;;;;;;2.13;0.73;;;;;;;19.79;27.49;96541.16;7393301;19;20093;-54
2024/04/03 07:38:04;;;;;;;1.60;0.85;;;;;;;18.62;27.40;96547.75;7393683;19;20010;-55
2024/04/03 07:40:29;;;;;;;2.63;1.10;;;;;;;18.69;30.08;96533.13;7394595;19;20482;-55
2024/04/03 07:42:55;;;;;;;7.60;1.00;;;;;;;19.88;28.46;96535.16;7400377;19;20003;-56
2024/04/03 07:45:20;;;;;;;1.25;0.80;;;;;;;20.45;27.30;96534.44;7399100;19;19995;-54
2024/04/03 07:47:47;;;;;;;4.88;0.95;;;;;;;20.96;27.33;96526.91;7398793;19;20010;-54
2024/04/03 07:50:13;;;;;;;6.30;1.13;;;;;;;20.37;29.09;96516.44;7400128;19;20070;-60
2024/04/03 07:52:38;;;;;;;2.90;0.90;;;;;;;20.20;26.35;96517.75;7400493;19;20032;-51
2024/04/03 07:55:12;;;;;;;1.77;0.70;;;;;;;19.73;28.48;96525.69;7400070;19;20457;-51
2024/04/03 07:57:37;;;;;;;1.35;0.80;;;;;;;21.05;27.08;96528.00;7400385;19;20027;-56
2024/04/03 08:00:05;;;;;;;1.45;0.60;;;;;;;21.11;26.50;96522.19;7399885;19;20007;-53
2024/04/03 08:02:35;;;;;;;1.05;0.50;;;;;;;19.86;27.51;96520.34;7399201;19;20026;-57
2024/04/03 08:05:01;;;;;;;1.25;0.77;;;;;;;18.98;27.53;96515.22;7398972;19;20010;-52
2024/04/03 08:07:28;;;;;;;2.03;0.75;;;;;;;19.34;27.54;96516.16;7399693;19;20032;-54
2024/04/03 08:09:54;;;;;;;1.95;0.70;;;;;;;20.67;27.40;96506.16;7399576;19;20005;-53
2024/04/03 08:12:20;;;;;;;1.48;0.50;;;;;;;18.30;29.83;96501.41;7399455;19;20018;-55
2024/04/03 08:14:46;;;;;;;1.15;0.50;;;;;;;19.87;29.59;96500.78;7399405;19;20001;-55
2024/04/03 08:17:11;;;;;;;1.13;0.50;;;;;;;19.28;28.99;96504.22;7399611;19;20010;-58
2024/04/03 08:19:37;;;;;;;2.42;0.60;;;;;;;18.98;29.45;96505.47;7399183;19;20345;-55
2024/04/03 08:22:02;;;;;;;2.63;0.60;;;;;;;18.62;29.86;96497.44;7399512;19;19999;-54
2024/04/03 08:24:29;;;;;;;0.90;0.50;;;;;;;17.58;31.83;96500.06;7398804;19;20456;-54
2024/04/03 08:26:55;;;;;;;1.73;0.60;;;;;;;19.87;29.91;96504.25;7399404;19;20058;-53
2024/04/03 08:29:22;;;;;;;1.42;0.82;;;;;;;19.85;30.79;96498.25;7398878;19;20023;-55
2024/04/03 08:31:49;;;;;;;2.28;0.50;;;;;;;18.87;29.18;96503.59;7398770;19;19999;-56
2024/04/03 08:34:14;;;;;;;3.28;0.77;;;;;;;19.30;28.01;96498.81;7398717;19;20022;-54
2024/04/03 08:36:40;;;;;;;2.50;0.80;;;;;;;19.50;29.18;96501.78;7398809;19;20054;-55
2024/04/03 08:39:07;;;;;;;1.92;0.70;;;;;;;20.40;27.75;96502.91;7398603;19;19994;-57
2024/04/03 08:41:34;;;;;;;1.05;0.50;;;;;;;19.61;28.61;96507.09;7398854;19;20002;-53
2024/04/03 08:44:00;;;;;;;2.55;0.82;;;;;;;19.48;28.05;96501.88;7398438;19;19991;-54
2024/04/03 08:46:32;;;;;;;1.25;0.45;;;;;;;20.22;27.17;96502.53;7396475;19;20339;-54
2024/04/03 08:48:57;;;;;;;2.58;0.60;;;;;;;19.69;28.60;96493.25;7398420;19;19995;-57
2024/04/03 08:51:28;;;;;;;1.45;0.60;;;;;;;18.40;29.69;96495.47;7397522;19;20015;-61
2024/04/03 08:54:03;;;;;;;2.63;0.80;;;;;;;18.16;30.66;96494.44;7398208;19;20005;-57
2024/04/03 08:56:30;;;;;;;2.33;0.73;;;;;;;18.08;29.92;96487.94;7398378;19;20001;-57
2024/04/03 08:58:58;;;;;;;1.65;0.70;;;;;;;18.97;28.79;96495.84;7397952;19;20006;-55
2024/04/03 09:01:24;;;;;;;3.33;0.60;;;;;;;20.31;29.36;96495.66;7397798;19;20002;-57
2024/04/03 09:03:49;;;;;;;1.92;0.63;;;;;;;20.95;27.88;96499.47;7396032;19;20007;-56
2024/04/03 09:06:15;;;;;;;0.68;0.52;;;;;;;20.17;27.89;96486.97;7395982;19;20006;-55
2024/04/03 09:08:44;;;;;;;3.45;0.90;;;;;;;19.57;27.63;96490.56;7397630;19;20010;-57
2024/04/03 09:11:11;;;;;;;1.45;0.73;;;;;;;20.51;27.16;96488.78;7397883;19;20043;-56
2024/04/03 09:13:37;;;;;;;1.23;0.60;;;;;;;21.29;26.56;96484.41;7397439;19;19998;-59
2024/04/03 09:16:03;;;;;;;0.40;0.40;;;;;;;20.29;27.55;96473.72;7397320;19;19994;-55
2024/04/03 09:18:30;;;;;;;2.45;0.95;;;;;;;21.26;29.50;96468.69;7397197;19;20014;-57
2024/04/03 09:20:55;;;;;;;1.30;0.63;;;;;;;20.35;26.12;96469.72;7397141;19;20040;-59
2024/04/03 09:23:21;;;;;;;2.90;0.93;;;;;;;20.62;26.53;96471.13;7396061;19;19998;-57
2024/04/03 09:25:48;;;;;;;1.50;0.60;;;;;;;20.43;29.17;96477.91;7396193;19;19998;-51
2024/04/03 09:28:14;;;;;;;2.15;0.68;;;;;;;21.70;26.94;96468.59;7397008;19;20489;-58
2024/04/03 09:30:48;;;;;;;1.15;0.60;;;;;;;20.22;30.23;96465.34;7397219;19;19999;-51
2024/04/03 09:33:14;;;;;;;0.55;0.40;;;;;;;20.71;27.65;96455.28;7397200;19;20058;-55
2024/04/03 09:35:42;;;;;;;1.35;0.65;;;;;;;20.77;27.23;96455.78;7396670;19;20002;-53
2024/04/03 09:38:14;;;;;;;3.08;0.55;;;;;;;20.75;28.95;96455.03;7396948;19;20379;-55
2024/04/03 09:40:41;;;;;;;2.55;0.90;;;;;;;19.55;27.16;96455.38;7396905;19;20003;-57
2024/04/03 09:43:10;;;;;;;4.82;0.90;;;;;;;19.64;30.95;96435.25;7396478;19;19999;-60
2024/04/03 09:45:36;;;;;;;2.35;0.52;;;;;;;19.40;27.95;96444.13;7395804;19;20034;-58
2024/04/03 09:48:06;;;;;;;2.17;0.95;;;;;;;19.56;29.34;96446.44;7396260;19;20461;-57
2024/04/03 09:50:44;;;;;;;1.27;0.70;;;;;;;20.16;28.94;96440.16;7396231;19;20006;-56
2024/04/03 09:53:22;;;;;;;2.22;0.80;;;;;;;21.51;28.34;96437.38;7396053;19;20007;-55
2024/04/03 09:55:49;;;;;;;4.13;0.60;;;;;;;21.19;29.67;96445.25;7396266;19;20003;-54
2024/04/03 09:58:26;;;;;;;0.70;0.40;;;;;;;21.52;26.09;96441.75;7396072;19;20014;-56
2024/04/03 10:00:54;;;;;;;1.33;0.55;;;;;;;21.44;26.82;96442.38;7396162;19;20054;-53
2024/04/03 10:03:30;;;;;;;0.82;0.40;;;;;;;20.99;27.43;96432.78;7392372;19;20013;-58
2024/04/03 10:06:04;;;;;;;2.17;0.52;;;;;;;20.81;26.53;96427.97;7394941;19;20362;-57
2024/04/03 10:08:42;;;;;;;0.77;0.52;;;;;;;21.80;27.81;96423.44;7395712;19;20024;-58
2024/04/03 10:11:18;;;;;;;1.48;0.70;;;;;;;20.71;27.57;96427.88;7395727;19;20033;-53
2024/04/03 10:13:44;;;;;;;2.20;0.65;;;;;;;20.59;26.01;96432.38;7395567;19;20481;-56
2024/04/03 10:16:15;;;;;;;0.68;0.50;;;;;;;20.66;25.00;96433.56;7393947;19;20012;-58
2024/04/03 10:18:43;;;;;;;0.93;0.68;;;;;;;21.34;28.13;96429.00;7395461;19;20002;-54
2024/04/03 10:21:10;;;;;;;1.08;0.50;;;;;;;21.28;26.11;96432.19;7395757;19;20006;-55
2024/04/03 10:23:51;;;;;;;1.15;0.80;;;;;;;21.44;25.14;96429.06;7395641;19;20003;-56
2024/04/03 10:26:20;;;;;;;3.00;0.60;;;;;;;21.44;28.08;96421.94;7393819;19;20013;-57
2024/04/03 10:28:46;;;;;;;0.63;0.43;;;;;;;21.41;25.69;96416.88;7395068;19;20489;-54
2024/04/03 10:31:20;;;;;;;1.15;0.60;;;;;;;21.28;26.79;96419.72;7395434;19;20007;-54
2024/04/03 10:33:50;;;;;;;0.95;0.60;;;;;;;21.63;26.13;96415.06;7395365;19;20400;-54
2024/04/03 10:36:16;;;;;;;2.10;0.70;;;;;;;22.26;24.93;96423.94;7395015;19;20524;-54
2024/04/03 10:38:42;;;;;;;2.45;0.80;;;;;;;21.68;27.21;96427.97;7395208;19;20011;-53
2024/04/03 10:41:08;;;;;;;0.98;0.70;;;;;;;21.75;25.52;96429.16;7395172;19;20527;-56
2024/04/03 10:43:33;;;;;;;1.00;0.50;;;;;;;21.73;25.94;96422.25;7394669;19;19998;-53
2024/04/03 10:45:59;;;;;;;0.85;0.60;;;;;;;20.92;25.19;96421.81;7393779;19;20019;-56
2024/04/03 10:48:24;;;;;;;1.27;0.68;;;;;;;21.01;24.91;96423.69;7394688;19;19996;-53
2024/04/03 10:50:51;;;;;;;1.77;0.60;;;;;;;21.50;24.02;96422.38;7394994;19;19995;-57
2024/04/03 10:53:17;;;;;;;2.40;1.00;;;;;;;19.84;26.55;96419.59;7394833;19;20038;-51
2024/04/03 10:55:43;;;;;;;0.77;0.45;;;;;;;21.00;26.15;96414.03;7394396;19;20469;-55
2024/04/03 10:58:09;;;;;;;2.30;0.70;;;;;;;20.56;24.96;96412.19;7394263;19;20467;-56
2024/04/03 11:00:40;;;;;;;1.48;0.60;;;;;;;19.23;26.34;96410.91;7394703;19;20014;-56
2024/04/03 11:03:06;;;;;;;;;;;;;;;19.85;26.86;96405.38;7394106;19;20034;-53
2024/04/03 11:05:33;;;;;;;0.88;0.55;;;;;;;19.83;24.72;96394.88;7393222;19;19978;-52
2024/04/03 11:08:01;;;;;;;2.25;0.80;;;;;;;20.16;26.63;96397.66;7394115;19;19994;-52
2024/04/03 11:10:27;;;;;;;2.13;0.80;;;;;;;20.65;26.69;96393.84;7394445;19;20002;-54
2024/04/03 11:13:03;;;;;;;2.92;0.60;;;;;;;19.88;26.07;96385.69;7394530;19;20022;-49
2024/04/03 11:15:29;;;;;;;2.13;0.68;;;;;;;20.23;26.27;96390.06;7398482;19;20062;-54
2024/04/03 11:17:55;;;;;;;1.13;0.55;;;;;;;20.98;24.52;96386.72;7401779;19;20011;-54
2024/04/03 11:20:20;;;;;;;2.63;0.70;;;;;;;21.26;23.90;96386.25;7401300;19;20051;-52
2024/04/03 11:22:48;;;;;;;1.98;0.90;;;;;;;21.41;25.38;96387.63;7401570;19;20018;-53
2024/04/03 11:25:13;;;;;;;2.05;0.90;;;;;;;21.10;26.54;96387.53;7400085;19;20337;-57
2024/04/03 11:27:39;;;;;;;1.08;0.85;;;;;;;21.58;26.83;96375.53;7400972;19;20070;-53
2024/04/03 11:30:06;;;;;;;0.90;0.70;;;;;;;21.28;27.74;96374.50;7400839;19;20015;-57
2024/04/03 11:32:32;;;;;;;0.75;0.60;;;;;;;22.07;26.85;96379.44;7400802;19;20505;-55
2024/04/03 11:34:58;;;;;;;3.03;0.70;;;;;;;21.99;26.47;96376.56;7400782;19;20456;-52